NKS9918 KFLL-KGYR
Flight info
| Callsign | NKS9918 |
|---|---|
| Flight time | N/A |
| Altitude | 38000 |
| Route | BNICE2 DOLIE CIGAR Y290 LEV IAH JCT ELP J50 ALIBY J2 TUS SUNSS8 |
| Aircraft | A321/M-SDE3FGHIRWY/LB1 |
Departure
| Time | 2026-05-07 00:42 |
|---|---|
| Airport | Fort Lauderdale Hollywood International Airport (KFLL) |
Arrival
| Time | N/A |
|---|---|
| Airport | Phoenix Goodyear Airport (KGYR) |
| Time | Latitude | Longitude | Altitude | Speed | Heading |
|---|---|---|---|---|---|
| 2026-05-07 00:30 | 26.06864 | -80.14951 | 16 ft | 0 kts | 360° |
| 2026-05-07 00:39 | 26.06894 | -80.14956 | 16 ft | 11 kts | 332° |
| 2026-05-07 00:39 | 26.06912 | -80.15082 | 16 ft | 22 kts | 270° |
| 2026-05-07 00:39 | 26.06863 | -80.15128 | 16 ft | 9 kts | 170° |
| 2026-05-07 00:40 | 26.06748 | -80.15130 | 17 ft | 20 kts | 180° |
| 2026-05-07 00:40 | 26.06696 | -80.15220 | 21 ft | 19 kts | 270° |
| 2026-05-07 00:40 | 26.06696 | -80.15350 | 16 ft | 30 kts | 270° |
| 2026-05-07 00:40 | 26.06698 | -80.15589 | 16 ft | 32 kts | 270° |
| 2026-05-07 00:41 | 26.06692 | -80.15800 | 16 ft | 17 kts | 241° |
| 2026-05-07 00:41 | 26.06592 | -80.15805 | 18 ft | 15 kts | 124° |
| 2026-05-07 00:41 | 26.06587 | -80.15687 | 22 ft | 25 kts | 91° |
| 2026-05-07 00:41 | 26.06585 | -80.15152 | 21 ft | 110 kts | 90° |
| 2026-05-07 00:42 | 26.06586 | -80.14089 | 257 ft | 150 kts | 91° |
| 2026-05-07 00:42 | 26.06602 | -80.12928 | 1000 ft | 150 kts | 88° |
| 2026-05-07 00:42 | 26.06656 | -80.11752 | 1656 ft | 161 kts | 89° |
| 2026-05-07 00:42 | 26.06925 | -80.10563 | 2350 ft | 159 kts | 65° |
| 2026-05-07 00:43 | 26.07514 | -80.09526 | 3033 ft | 157 kts | 58° |
| 2026-05-07 00:43 | 26.08104 | -80.08503 | 3616 ft | 162 kts | 56° |
| 2026-05-07 00:43 | 26.08853 | -80.07448 | 3867 ft | 185 kts | 39° |
| 2026-05-07 00:43 | 26.10023 | -80.06729 | 4186 ft | 198 kts | 17° |
| 2026-05-07 00:44 | 26.11277 | -80.06246 | 5001 ft | 184 kts | 17° |
| 2026-05-07 00:44 | 26.12437 | -80.05773 | 5812 ft | 172 kts | 25° |
| 2026-05-07 00:44 | 26.13230 | -80.04851 | 6639 ft | 161 kts | 57° |
| 2026-05-07 00:44 | 26.13714 | -80.03802 | 7418 ft | 143 kts | 57° |
| 2026-05-07 00:45 | 26.14404 | -80.03195 | 8109 ft | 127 kts | 7° |
| 2026-05-07 00:45 | 26.15310 | -80.03498 | 8567 ft | 152 kts | 323° |
| 2026-05-07 00:45 | 26.16169 | -80.04256 | 8969 ft | 179 kts | 328° |
| 2026-05-07 00:45 | 26.17357 | -80.05019 | 9129 ft | 215 kts | 338° |
| 2026-05-07 00:46 | 26.18854 | -80.05737 | 9116 ft | 254 kts | 340° |
| 2026-05-07 00:46 | 26.20599 | -80.06652 | 9115 ft | 301 kts | 330° |
| 2026-05-07 00:46 | 26.22221 | -80.08208 | 9968 ft | 309 kts | 313° |
| 2026-05-07 00:46 | 26.23419 | -80.10200 | 10909 ft | 320 kts | 299° |
| 2026-05-07 00:47 | 26.24381 | -80.12540 | 11220 ft | 343 kts | 301° |
| 2026-05-07 00:47 | 26.25670 | -80.14875 | 11528 ft | 363 kts | 305° |
| 2026-05-07 00:47 | 26.27074 | -80.17253 | 12151 ft | 371 kts | 306° |
| 2026-05-07 00:47 | 26.28523 | -80.19652 | 12815 ft | 374 kts | 307° |
| 2026-05-07 00:48 | 26.29988 | -80.22065 | 13512 ft | 377 kts | 307° |
| 2026-05-07 00:48 | 26.31460 | -80.24500 | 14166 ft | 380 kts | 306° |
| 2026-05-07 00:48 | 26.32937 | -80.26961 | 14795 ft | 383 kts | 306° |
| 2026-05-07 00:48 | 26.34414 | -80.29441 | 15428 ft | 385 kts | 305° |
| 2026-05-07 00:49 | 26.35876 | -80.31912 | 16053 ft | 387 kts | 305° |
| 2026-05-07 00:49 | 26.37361 | -80.34427 | 16688 ft | 390 kts | 304° |
| 2026-05-07 00:49 | 26.38857 | -80.36955 | 17321 ft | 392 kts | 304° |
| 2026-05-07 00:49 | 26.40365 | -80.39497 | 17960 ft | 394 kts | 304° |
| 2026-05-07 00:50 | 26.41886 | -80.42061 | 18569 ft | 397 kts | 304° |
| 2026-05-07 00:50 | 26.43413 | -80.44637 | 19140 ft | 398 kts | 304° |
| 2026-05-07 00:50 | 26.44942 | -80.47222 | 19705 ft | 400 kts | 304° |
| 2026-05-07 00:50 | 26.46474 | -80.49818 | 20275 ft | 401 kts | 304° |
| 2026-05-07 00:51 | 26.48007 | -80.52421 | 20846 ft | 402 kts | 304° |
| 2026-05-07 00:51 | 26.49547 | -80.55032 | 21386 ft | 403 kts | 303° |
| 2026-05-07 00:51 | 26.51075 | -80.57623 | 21888 ft | 405 kts | 303° |
| 2026-05-07 00:51 | 26.52630 | -80.60258 | 22405 ft | 407 kts | 303° |
| 2026-05-07 00:52 | 26.54188 | -80.62903 | 22902 ft | 409 kts | 303° |
| 2026-05-07 00:52 | 26.55750 | -80.65560 | 23401 ft | 410 kts | 303° |
| 2026-05-07 00:52 | 26.57318 | -80.68227 | 23877 ft | 411 kts | 303° |
| 2026-05-07 00:52 | 26.58891 | -80.70902 | 24320 ft | 412 kts | 303° |
| 2026-05-07 00:53 | 26.60467 | -80.73581 | 24738 ft | 414 kts | 303° |
| 2026-05-07 00:53 | 26.62051 | -80.76275 | 25132 ft | 416 kts | 303° |
| 2026-05-07 00:53 | 26.63642 | -80.78988 | 25525 ft | 418 kts | 303° |
| 2026-05-07 00:53 | 26.65240 | -80.81715 | 25919 ft | 420 kts | 303° |
| 2026-05-07 00:54 | 26.66845 | -80.84459 | 26313 ft | 422 kts | 303° |
| 2026-05-07 00:54 | 26.68460 | -80.87217 | 26699 ft | 425 kts | 303° |
| 2026-05-07 00:54 | 26.70061 | -80.89950 | 27071 ft | 427 kts | 303° |
| 2026-05-07 00:54 | 26.71696 | -80.92740 | 27436 ft | 429 kts | 303° |
| 2026-05-07 00:55 | 26.73337 | -80.95541 | 27821 ft | 431 kts | 303° |
| 2026-05-07 00:55 | 26.74983 | -80.98350 | 28205 ft | 433 kts | 303° |
| 2026-05-07 00:55 | 26.76638 | -81.01181 | 28592 ft | 436 kts | 302° |
| 2026-05-07 00:55 | 26.78298 | -81.04029 | 28981 ft | 438 kts | 302° |
| 2026-05-07 00:56 | 26.79964 | -81.06889 | 29337 ft | 440 kts | 302° |
| 2026-05-07 00:56 | 26.81636 | -81.09759 | 29773 ft | 440 kts | 302° |
| 2026-05-07 00:56 | 26.83301 | -81.12622 | 30274 ft | 438 kts | 302° |
| 2026-05-07 00:56 | 26.84960 | -81.15478 | 30710 ft | 436 kts | 302° |
| 2026-05-07 00:57 | 26.86615 | -81.18319 | 31164 ft | 434 kts | 302° |
| 2026-05-07 00:57 | 26.88264 | -81.21145 | 31608 ft | 433 kts | 302° |
| 2026-05-07 00:57 | 26.89889 | -81.23931 | 32053 ft | 431 kts | 302° |
| 2026-05-07 00:57 | 26.91524 | -81.26744 | 32540 ft | 429 kts | 302° |
| 2026-05-07 00:58 | 26.93143 | -81.29537 | 33013 ft | 427 kts | 302° |
| 2026-05-07 00:58 | 26.94756 | -81.32322 | 33478 ft | 425 kts | 302° |
| 2026-05-07 00:58 | 26.96364 | -81.35094 | 33922 ft | 424 kts | 302° |
| 2026-05-07 00:58 | 26.97969 | -81.37862 | 34320 ft | 423 kts | 302° |
| 2026-05-07 00:59 | 27.01162 | -81.43371 | 35087 ft | 420 kts | 302° |
| 2026-05-07 00:59 | 27.02751 | -81.46119 | 35476 ft | 418 kts | 302° |
| 2026-05-07 00:59 | 27.04332 | -81.48859 | 35870 ft | 417 kts | 302° |
| 2026-05-07 01:00 | 27.05904 | -81.51584 | 36268 ft | 415 kts | 302° |
| 2026-05-07 01:00 | 27.07473 | -81.54299 | 36658 ft | 414 kts | 302° |
| 2026-05-07 01:00 | 27.09018 | -81.56969 | 37032 ft | 413 kts | 302° |
| 2026-05-07 01:00 | 27.10577 | -81.59665 | 37392 ft | 411 kts | 301° |
| 2026-05-07 01:01 | 27.12129 | -81.62357 | 37744 ft | 410 kts | 301° |
| 2026-05-07 01:01 | 27.13675 | -81.65044 | 38018 ft | 410 kts | 301° |
| 2026-05-07 01:01 | 27.15214 | -81.67726 | 38082 ft | 407 kts | 301° |
| 2026-05-07 01:02 | 27.18267 | -81.73059 | 38081 ft | 405 kts | 301° |
| 2026-05-07 01:02 | 27.21323 | -81.78375 | 38083 ft | 406 kts | 301° |
| 2026-05-07 01:03 | 27.24437 | -81.83790 | 38089 ft | 417 kts | 301° |
| 2026-05-07 01:03 | 27.27487 | -81.89353 | 38080 ft | 417 kts | 294° |
| 2026-05-07 01:04 | 27.28947 | -81.95622 | 38088 ft | 418 kts | 276° |
| 2026-05-07 01:04 | 27.29460 | -82.02086 | 38087 ft | 418 kts | 276° |
| 2026-05-07 01:05 | 27.30001 | -82.08600 | 38092 ft | 419 kts | 276° |
| 2026-05-07 01:05 | 27.30541 | -82.15118 | 38099 ft | 419 kts | 276° |
| 2026-05-07 01:06 | 27.31070 | -82.21651 | 38101 ft | 420 kts | 276° |
| 2026-05-07 01:06 | 27.31599 | -82.28190 | 38105 ft | 420 kts | 276° |
| 2026-05-07 01:07 | 27.32120 | -82.34735 | 38103 ft | 420 kts | 276° |
| 2026-05-07 01:07 | 27.32637 | -82.41282 | 38103 ft | 420 kts | 276° |
| 2026-05-07 01:08 | 27.33155 | -82.47831 | 38107 ft | 420 kts | 276° |
| 2026-05-07 01:08 | 27.33661 | -82.54336 | 38105 ft | 420 kts | 276° |
| 2026-05-07 01:09 | 27.34167 | -82.60885 | 38106 ft | 420 kts | 276° |
| 2026-05-07 01:09 | 27.34677 | -82.67433 | 38106 ft | 420 kts | 276° |
| 2026-05-07 01:10 | 27.35183 | -82.73983 | 38120 ft | 420 kts | 276° |
| 2026-05-07 01:10 | 27.35682 | -82.80534 | 38104 ft | 420 kts | 276° |
| 2026-05-07 01:11 | 27.36180 | -82.87084 | 38109 ft | 420 kts | 276° |
| 2026-05-07 01:11 | 27.36671 | -82.93639 | 38108 ft | 420 kts | 276° |
| 2026-05-07 01:12 | 27.37165 | -83.00190 | 38111 ft | 421 kts | 276° |
| 2026-05-07 01:12 | 27.37654 | -83.06746 | 38106 ft | 421 kts | 276° |
| 2026-05-07 01:13 | 27.38143 | -83.13305 | 38107 ft | 421 kts | 276° |
| 2026-05-07 01:13 | 27.38623 | -83.19865 | 38105 ft | 421 kts | 275° |
| 2026-05-07 01:14 | 27.39100 | -83.26378 | 38111 ft | 421 kts | 275° |
| 2026-05-07 01:14 | 27.39585 | -83.32941 | 38108 ft | 421 kts | 275° |
| 2026-05-07 01:15 | 27.40058 | -83.39503 | 38109 ft | 421 kts | 275° |
| 2026-05-07 01:15 | 27.40535 | -83.46069 | 38109 ft | 421 kts | 275° |
| 2026-05-07 01:16 | 27.41006 | -83.52631 | 38106 ft | 421 kts | 275° |
| 2026-05-07 01:16 | 27.41460 | -83.59200 | 38118 ft | 421 kts | 275° |
| 2026-05-07 01:17 | 27.41918 | -83.65768 | 38109 ft | 421 kts | 275° |
| 2026-05-07 01:17 | 27.42377 | -83.72336 | 38109 ft | 421 kts | 275° |
| 2026-05-07 01:18 | 27.42832 | -83.78862 | 38106 ft | 421 kts | 275° |
| 2026-05-07 01:18 | 27.43280 | -83.85433 | 38107 ft | 421 kts | 275° |
| 2026-05-07 01:19 | 27.43730 | -83.92000 | 38107 ft | 421 kts | 275° |
| 2026-05-07 01:19 | 27.44179 | -83.98570 | 38107 ft | 421 kts | 275° |
| 2026-05-07 01:20 | 27.44630 | -84.05138 | 38119 ft | 421 kts | 275° |
| 2026-05-07 01:20 | 27.45069 | -84.11713 | 38107 ft | 421 kts | 275° |
| 2026-05-07 01:21 | 27.45507 | -84.18277 | 38117 ft | 421 kts | 275° |
| 2026-05-07 01:21 | 27.45942 | -84.24842 | 38119 ft | 421 kts | 275° |
| 2026-05-07 01:22 | 27.46370 | -84.31410 | 38127 ft | 421 kts | 275° |
| 2026-05-07 01:22 | 27.46791 | -84.37980 | 38106 ft | 420 kts | 275° |
| 2026-05-07 01:23 | 27.47212 | -84.44499 | 38103 ft | 420 kts | 275° |
| 2026-05-07 01:23 | 27.47641 | -84.51062 | 38103 ft | 420 kts | 275° |
| 2026-05-07 01:24 | 27.48066 | -84.57627 | 38113 ft | 420 kts | 275° |
| 2026-05-07 01:24 | 27.48471 | -84.64188 | 38106 ft | 420 kts | 274° |
| 2026-05-07 01:25 | 27.48874 | -84.70753 | 38116 ft | 420 kts | 274° |
| 2026-05-07 01:25 | 27.49286 | -84.77309 | 38106 ft | 419 kts | 275° |
| 2026-05-07 01:26 | 27.50314 | -84.83766 | 38102 ft | 419 kts | 281° |
| 2026-05-07 01:26 | 27.51458 | -84.90202 | 38108 ft | 419 kts | 281° |
| 2026-05-07 01:27 | 27.52600 | -84.96634 | 38105 ft | 419 kts | 281° |
| 2026-05-07 01:27 | 27.53722 | -85.03030 | 38096 ft | 419 kts | 281° |
| 2026-05-07 01:28 | 27.54843 | -85.09470 | 38099 ft | 419 kts | 280° |
| 2026-05-07 01:28 | 27.55968 | -85.15907 | 38094 ft | 419 kts | 281° |
| 2026-05-07 01:29 | 27.57092 | -85.22340 | 38094 ft | 418 kts | 280° |
| 2026-05-07 01:29 | 27.58208 | -85.28777 | 38099 ft | 418 kts | 280° |
| 2026-05-07 01:30 | 27.59416 | -85.35197 | 38087 ft | 419 kts | 287° |
| 2026-05-07 01:30 | 27.61281 | -85.41422 | 38096 ft | 419 kts | 287° |
| 2026-05-07 01:31 | 27.63150 | -85.47646 | 38098 ft | 419 kts | 287° |
| 2026-05-07 01:31 | 27.65019 | -85.53877 | 38092 ft | 419 kts | 287° |
| 2026-05-07 01:32 | 27.66883 | -85.60109 | 38091 ft | 419 kts | 287° |
| 2026-05-07 01:32 | 27.68731 | -85.66302 | 38096 ft | 419 kts | 287° |
| 2026-05-07 01:33 | 27.70588 | -85.72541 | 38106 ft | 419 kts | 287° |
| 2026-05-07 01:33 | 27.72448 | -85.78780 | 38083 ft | 419 kts | 287° |
| 2026-05-07 01:34 | 27.74300 | -85.85021 | 38082 ft | 419 kts | 287° |
| 2026-05-07 01:34 | 27.76150 | -85.91264 | 38085 ft | 419 kts | 287° |
| 2026-05-07 01:35 | 27.77991 | -85.97511 | 38095 ft | 419 kts | 287° |
| 2026-05-07 01:35 | 27.79832 | -86.03759 | 38094 ft | 419 kts | 287° |
| 2026-05-07 01:36 | 27.81671 | -86.10009 | 38084 ft | 419 kts | 287° |
| 2026-05-07 01:36 | 27.83515 | -86.16262 | 38082 ft | 419 kts | 287° |
| 2026-05-07 01:37 | 27.85356 | -86.22514 | 38072 ft | 420 kts | 287° |
| 2026-05-07 01:37 | 27.86879 | -86.27717 | 38078 ft | 420 kts | 287° |
| 2026-05-07 01:38 | 27.88998 | -86.35005 | 38078 ft | 420 kts | 287° |
| 2026-05-07 01:38 | 27.90828 | -86.41279 | 38071 ft | 420 kts | 287° |
| 2026-05-07 01:39 | 27.92661 | -86.47554 | 38092 ft | 420 kts | 287° |
| 2026-05-07 01:39 | 27.94191 | -86.52814 | 38075 ft | 420 kts | 287° |
| 2026-05-07 01:40 | 27.96010 | -86.59095 | 38075 ft | 420 kts | 286° |
| 2026-05-07 01:40 | 27.97819 | -86.65343 | 38068 ft | 421 kts | 286° |
| 2026-05-07 01:41 | 27.99638 | -86.71632 | 38069 ft | 421 kts | 286° |
| 2026-05-07 01:41 | 28.01455 | -86.77926 | 38065 ft | 421 kts | 286° |
| 2026-05-07 01:42 | 28.03316 | -86.84209 | 38078 ft | 421 kts | 287° |
| 2026-05-07 01:42 | 28.05209 | -86.90485 | 38070 ft | 421 kts | 287° |
| 2026-05-07 01:43 | 28.07080 | -86.96759 | 38067 ft | 421 kts | 287° |
| 2026-05-07 01:43 | 28.08941 | -87.03041 | 38067 ft | 421 kts | 287° |
| 2026-05-07 01:44 | 28.10799 | -87.09326 | 38074 ft | 421 kts | 287° |
| 2026-05-07 01:44 | 28.12660 | -87.15610 | 38065 ft | 421 kts | 287° |
| 2026-05-07 01:45 | 28.14522 | -87.21895 | 38064 ft | 421 kts | 287° |
| 2026-05-07 01:45 | 28.16368 | -87.28188 | 38063 ft | 421 kts | 286° |
| 2026-05-07 01:46 | 28.18216 | -87.34483 | 38065 ft | 421 kts | 286° |
| 2026-05-07 01:46 | 28.20061 | -87.40780 | 38057 ft | 421 kts | 286° |
| 2026-05-07 01:47 | 28.21899 | -87.47082 | 38054 ft | 421 kts | 286° |
| 2026-05-07 01:47 | 28.23737 | -87.53384 | 38057 ft | 421 kts | 286° |
| 2026-05-07 01:48 | 28.25568 | -87.59647 | 38049 ft | 421 kts | 286° |
| 2026-05-07 01:48 | 28.27404 | -87.65955 | 38052 ft | 421 kts | 286° |
| 2026-05-07 01:49 | 28.29236 | -87.72265 | 38051 ft | 421 kts | 286° |
| 2026-05-07 01:49 | 28.31067 | -87.78577 | 38048 ft | 421 kts | 286° |
| 2026-05-07 01:50 | 28.32900 | -87.84893 | 38051 ft | 421 kts | 286° |
| 2026-05-07 01:50 | 28.34725 | -87.91213 | 38043 ft | 421 kts | 286° |
| 2026-05-07 01:51 | 28.36547 | -87.97536 | 38057 ft | 421 kts | 286° |
| 2026-05-07 01:51 | 28.38405 | -88.03839 | 38045 ft | 422 kts | 290° |
| 2026-05-07 01:52 | 28.40785 | -88.09933 | 38052 ft | 422 kts | 291° |
| 2026-05-07 01:52 | 28.43181 | -88.16016 | 38047 ft | 422 kts | 291° |
| 2026-05-07 01:53 | 28.45553 | -88.22053 | 38042 ft | 421 kts | 291° |
| 2026-05-07 01:53 | 28.47937 | -88.28134 | 38042 ft | 421 kts | 291° |
| 2026-05-07 01:54 | 28.50314 | -88.34213 | 38035 ft | 421 kts | 291° |
| 2026-05-07 01:54 | 28.52689 | -88.40294 | 38035 ft | 421 kts | 291° |
| 2026-05-07 01:55 | 28.55057 | -88.46378 | 38037 ft | 421 kts | 291° |
| 2026-05-07 01:55 | 28.57423 | -88.52464 | 38029 ft | 421 kts | 291° |
| 2026-05-07 01:56 | 28.59782 | -88.58555 | 38029 ft | 421 kts | 291° |
| 2026-05-07 01:56 | 28.62146 | -88.64643 | 38026 ft | 421 kts | 291° |
| 2026-05-07 01:57 | 28.64506 | -88.70736 | 38025 ft | 421 kts | 291° |
| 2026-05-07 01:57 | 28.66859 | -88.76829 | 38043 ft | 420 kts | 290° |
| 2026-05-07 01:58 | 28.69191 | -88.82877 | 38028 ft | 419 kts | 290° |
| 2026-05-07 01:58 | 28.71528 | -88.88963 | 38024 ft | 419 kts | 290° |
| 2026-05-07 01:59 | 28.73864 | -88.95042 | 38019 ft | 419 kts | 290° |
| 2026-05-07 01:59 | 28.76205 | -89.01122 | 38018 ft | 419 kts | 290° |
| 2026-05-07 02:00 | 28.78539 | -89.07203 | 38017 ft | 419 kts | 290° |
| 2026-05-07 02:00 | 28.80867 | -89.13288 | 38016 ft | 419 kts | 290° |
| 2026-05-07 02:01 | 28.83192 | -89.19372 | 38017 ft | 419 kts | 290° |
| 2026-05-07 02:01 | 28.85514 | -89.25460 | 38009 ft | 419 kts | 290° |
| 2026-05-07 02:02 | 28.87833 | -89.31559 | 38011 ft | 419 kts | 290° |
| 2026-05-07 02:02 | 28.90155 | -89.37663 | 38012 ft | 419 kts | 290° |
| 2026-05-07 02:03 | 28.92470 | -89.43772 | 38009 ft | 420 kts | 290° |
| 2026-05-07 02:03 | 28.94790 | -89.49891 | 38010 ft | 420 kts | 290° |
| 2026-05-07 02:04 | 28.97114 | -89.56008 | 38022 ft | 420 kts | 289° |
| 2026-05-07 02:04 | 28.99428 | -89.62122 | 38020 ft | 419 kts | 289° |
| 2026-05-07 02:05 | 29.01713 | -89.68197 | 38014 ft | 419 kts | 289° |
| 2026-05-07 02:05 | 29.04012 | -89.74310 | 38013 ft | 419 kts | 289° |
| 2026-05-07 02:06 | 29.06312 | -89.80420 | 38013 ft | 419 kts | 289° |
| 2026-05-07 02:06 | 29.08611 | -89.86548 | 38012 ft | 418 kts | 289° |
| 2026-05-07 02:07 | 29.10903 | -89.92659 | 38012 ft | 418 kts | 289° |
| 2026-05-07 02:07 | 29.14332 | -90.01838 | 38004 ft | 418 kts | 289° |
| 2026-05-07 02:08 | 29.16615 | -90.07963 | 38003 ft | 419 kts | 289° |
| 2026-05-07 02:08 | 29.18199 | -90.14301 | 38002 ft | 414 kts | 278° |
| 2026-05-07 02:09 | 29.19287 | -90.20768 | 38002 ft | 414 kts | 278° |
| 2026-05-07 02:09 | 29.20372 | -90.27196 | 38003 ft | 414 kts | 278° |
| 2026-05-07 02:10 | 29.21461 | -90.33670 | 38003 ft | 414 kts | 278° |
| 2026-05-07 02:10 | 29.22545 | -90.40154 | 38006 ft | 414 kts | 278° |
| 2026-05-07 02:11 | 29.23629 | -90.46635 | 38002 ft | 415 kts | 278° |
| 2026-05-07 02:11 | 29.24709 | -90.53122 | 38001 ft | 415 kts | 278° |
| 2026-05-07 02:12 | 29.25791 | -90.59609 | 38011 ft | 415 kts | 278° |
| 2026-05-07 02:12 | 29.26869 | -90.66089 | 38006 ft | 414 kts | 278° |
| 2026-05-07 02:13 | 29.27939 | -90.72565 | 38001 ft | 414 kts | 278° |
| 2026-05-07 02:13 | 29.28215 | -90.74240 | 37998 ft | 414 kts | 278° |
| 2026-05-07 02:17 | 29.28215 | -90.74241 | 37998 ft | 414 kts | 278° |
| 2026-05-07 02:25 | 29.28215 | -90.74243 | 37998 ft | 414 kts | 278° |
| 2026-05-07 02:32 | 29.28216 | -90.74246 | 37998 ft | 414 kts | 278° |
| 2026-05-07 02:55 | 29.28226 | -90.74306 | 37998 ft | 413 kts | 278° |